sensor_id;sensor_type;location;lat;lon;timestamp;temperature;humidity
25046;DHT22;13044;49.304;12.840;2023-03-31T00:00:46;8.30;99.90
25046;DHT22;13044;49.304;12.840;2023-03-31T00:03:17;8.20;99.90
25046;DHT22;13044;49.304;12.840;2023-03-31T00:05:48;8.20;99.90
25046;DHT22;13044;49.304;12.840;2023-03-31T00:08:19;8.10;99.90
25046;DHT22;13044;49.304;12.840;2023-03-31T00:10:46;8.10;99.90
25046;DHT22;13044;49.304;12.840;2023-03-31T00:13:14;8.10;99.90
25046;DHT22;13044;49.304;12.840;2023-03-31T00:15:41;8.10;99.90
25046;DHT22;13044;49.304;12.840;2023-03-31T00:18:08;8.00;99.90
25046;DHT22;13044;49.304;12.840;2023-03-31T00:20:35;8.00;99.90
25046;DHT22;13044;49.304;12.840;2023-03-31T00:23:04;8.00;99.90
25046;DHT22;13044;49.304;12.840;2023-03-31T00:25:39;7.90;99.90
25046;DHT22;13044;49.304;12.840;2023-03-31T00:28:07;7.90;99.90
25046;DHT22;13044;49.304;12.840;2023-03-31T00:30:34;7.80;99.90
25046;DHT22;13044;49.304;12.840;2023-03-31T00:33:01;7.70;99.90
25046;DHT22;13044;49.304;12.840;2023-03-31T00:35:28;7.70;99.90
25046;DHT22;13044;49.304;12.840;2023-03-31T00:37:55;7.60;99.90
25046;DHT22;13044;49.304;12.840;2023-03-31T00:40:23;7.60;99.90
25046;DHT22;13044;49.304;12.840;2023-03-31T00:42:50;7.60;99.90
25046;DHT22;13044;49.304;12.840;2023-03-31T00:45:23;7.60;99.90
25046;DHT22;13044;49.304;12.840;2023-03-31T00:48:07;7.70;99.90
25046;DHT22;13044;49.304;12.840;2023-03-31T00:50:54;7.70;99.90
25046;DHT22;13044;49.304;12.840;2023-03-31T00:53:26;7.70;99.90
25046;DHT22;13044;49.304;12.840;2023-03-31T00:56:00;7.80;99.90
25046;DHT22;13044;49.304;12.840;2023-03-31T00:58:33;7.80;99.90
25046;DHT22;13044;49.304;12.840;2023-03-31T01:01:02;7.70;99.90
25046;DHT22;13044;49.304;12.840;2023-03-31T01:03:31;7.70;99.90
25046;DHT22;13044;49.304;12.840;2023-03-31T01:06:04;7.70;99.90
25046;DHT22;13044;49.304;12.840;2023-03-31T01:08:32;7.70;99.90
25046;DHT22;13044;49.304;12.840;2023-03-31T01:11:04;7.60;99.90
25046;DHT22;13044;49.304;12.840;2023-03-31T01:13:38;7.60;99.90
25046;DHT22;13044;49.304;12.840;2023-03-31T01:16:06;7.60;99.90
25046;DHT22;13044;49.304;12.840;2023-03-31T01:18:33;7.50;99.90
25046;DHT22;13044;49.304;12.840;2023-03-31T01:21:29;7.40;99.90
25046;DHT22;13044;49.304;12.840;2023-03-31T01:27:41;7.20;99.90
25046;DHT22;13044;49.304;12.840;2023-03-31T01:42:43;7.30;99.90
25046;DHT22;13044;49.304;12.840;2023-03-31T01:51:13;7.20;99.90
25046;DHT22;13044;49.304;12.840;2023-03-31T01:54:18;7.20;99.90
25046;DHT22;13044;49.304;12.840;2023-03-31T01:57:12;7.20;99.90
25046;DHT22;13044;49.304;12.840;2023-03-31T01:59:45;7.10;99.90
25046;DHT22;13044;49.304;12.840;2023-03-31T02:02:35;7.10;99.90
25046;DHT22;13044;49.304;12.840;2023-03-31T02:05:18;7.00;99.90
25046;DHT22;13044;49.304;12.840;2023-03-31T02:07:53;6.90;99.90
25046;DHT22;13044;49.304;12.840;2023-03-31T02:10:23;6.90;99.90
25046;DHT22;13044;49.304;12.840;2023-03-31T02:12:52;6.90;99.90
25046;DHT22;13044;49.304;12.840;2023-03-31T02:15:29;6.90;99.90
25046;DHT22;13044;49.304;12.840;2023-03-31T02:18:02;7.00;99.90
25046;DHT22;13044;49.304;12.840;2023-03-31T02:20:41;7.10;99.90
25046;DHT22;13044;49.304;12.840;2023-03-31T02:23:12;7.10;99.90
25046;DHT22;13044;49.304;12.840;2023-03-31T02:25:52;7.20;99.90
25046;DHT22;13044;49.304;12.840;2023-03-31T02:28:23;7.20;99.90
25046;DHT22;13044;49.304;12.840;2023-03-31T02:33:51;7.20;99.90
25046;DHT22;13044;49.304;12.840;2023-03-31T02:36:19;7.20;99.90
25046;DHT22;13044;49.304;12.840;2023-03-31T02:39:02;7.20;99.90
25046;DHT22;13044;49.304;12.840;2023-03-31T02:41:31;7.20;99.90
25046;DHT22;13044;49.304;12.840;2023-03-31T02:43:59;7.20;99.90
25046;DHT22;13044;49.304;12.840;2023-03-31T02:46:26;7.10;99.90
25046;DHT22;13044;49.304;12.840;2023-03-31T02:48:56;7.20;99.90
25046;DHT22;13044;49.304;12.840;2023-03-31T03:00:49;7.00;99.90
25046;DHT22;13044;49.304;12.840;2023-03-31T03:06:29;6.90;99.90
25046;DHT22;13044;49.304;12.840;2023-03-31T03:15:25;6.90;99.90
25046;DHT22;13044;49.304;12.840;2023-03-31T03:17:58;6.80;99.90
25046;DHT22;13044;49.304;12.840;2023-03-31T03:20:25;6.70;99.90
25046;DHT22;13044;49.304;12.840;2023-03-31T03:22:52;6.80;99.90
25046;DHT22;13044;49.304;12.840;2023-03-31T03:25:19;6.80;99.90
25046;DHT22;13044;49.304;12.840;2023-03-31T03:27:46;6.90;99.90
25046;DHT22;13044;49.304;12.840;2023-03-31T03:30:13;6.80;99.90
25046;DHT22;13044;49.304;12.840;2023-03-31T03:32:40;6.90;99.90
25046;DHT22;13044;49.304;12.840;2023-03-31T03:35:09;6.90;99.90
25046;DHT22;13044;49.304;12.840;2023-03-31T03:37:36;6.90;99.90
25046;DHT22;13044;49.304;12.840;2023-03-31T03:40:04;6.90;99.90
25046;DHT22;13044;49.304;12.840;2023-03-31T03:42:33;6.90;99.90
25046;DHT22;13044;49.304;12.840;2023-03-31T03:45:00;7.00;99.90
25046;DHT22;13044;49.304;12.840;2023-03-31T03:47:27;7.00;99.90
25046;DHT22;13044;49.304;12.840;2023-03-31T03:49:54;7.00;99.90
25046;DHT22;13044;49.304;12.840;2023-03-31T03:52:21;7.00;99.90
25046;DHT22;13044;49.304;12.840;2023-03-31T03:54:49;7.00;99.90
25046;DHT22;13044;49.304;12.840;2023-03-31T03:57:16;7.00;99.90
25046;DHT22;13044;49.304;12.840;2023-03-31T03:59:43;7.10;99.90
25046;DHT22;13044;49.304;12.840;2023-03-31T04:02:10;7.10;99.90
25046;DHT22;13044;49.304;12.840;2023-03-31T04:04:37;7.10;99.90
25046;DHT22;13044;49.304;12.840;2023-03-31T04:07:04;7.10;99.90
25046;DHT22;13044;49.304;12.840;2023-03-31T04:09:31;7.10;99.90
25046;DHT22;13044;49.304;12.840;2023-03-31T04:11:58;7.20;99.90
25046;DHT22;13044;49.304;12.840;2023-03-31T04:14:24;7.20;99.90
25046;DHT22;13044;49.304;12.840;2023-03-31T04:16:52;7.30;99.90
25046;DHT22;13044;49.304;12.840;2023-03-31T04:19:22;7.30;99.90
25046;DHT22;13044;49.304;12.840;2023-03-31T04:21:51;7.40;99.90
25046;DHT22;13044;49.304;12.840;2023-03-31T04:24:25;7.40;99.90
25046;DHT22;13044;49.304;12.840;2023-03-31T04:26:56;7.40;99.90
25046;DHT22;13044;49.304;12.840;2023-03-31T04:29:23;7.40;99.90
25046;DHT22;13044;49.304;12.840;2023-03-31T04:31:55;7.40;99.90
25046;DHT22;13044;49.304;12.840;2023-03-31T04:34:25;7.50;99.90
25046;DHT22;13044;49.304;12.840;2023-03-31T04:37:01;7.50;99.90
25046;DHT22;13044;49.304;12.840;2023-03-31T04:39:29;7.50;99.90
25046;DHT22;13044;49.304;12.840;2023-03-31T04:41:57;7.50;99.90
25046;DHT22;13044;49.304;12.840;2023-03-31T04:44:25;7.40;99.90
25046;DHT22;13044;49.304;12.840;2023-03-31T04:46:53;7.50;99.90
25046;DHT22;13044;49.304;12.840;2023-03-31T04:49:20;7.50;99.90
25046;DHT22;13044;49.304;12.840;2023-03-31T04:51:47;7.50;99.90
25046;DHT22;13044;49.304;12.840;2023-03-31T04:54:14;7.50;99.90
25046;DHT22;13044;49.304;12.840;2023-03-31T04:56:41;7.50;99.90
25046;DHT22;13044;49.304;12.840;2023-03-31T04:59:08;7.60;99.90
25046;DHT22;13044;49.304;12.840;2023-03-31T05:01:35;7.60;99.90
25046;DHT22;13044;49.304;12.840;2023-03-31T05:04:03;7.50;99.90
25046;DHT22;13044;49.304;12.840;2023-03-31T05:06:31;7.50;99.90
25046;DHT22;13044;49.304;12.840;2023-03-31T05:08:58;7.50;99.90
25046;DHT22;13044;49.304;12.840;2023-03-31T05:11:25;7.60;99.90
25046;DHT22;13044;49.304;12.840;2023-03-31T05:13:53;7.60;99.90
25046;DHT22;13044;49.304;12.840;2023-03-31T05:16:20;7.60;99.90
25046;DHT22;13044;49.304;12.840;2023-03-31T05:18:47;7.50;99.90
25046;DHT22;13044;49.304;12.840;2023-03-31T05:21:19;7.50;99.90
25046;DHT22;13044;49.304;12.840;2023-03-31T05:23:46;7.50;99.90
25046;DHT22;13044;49.304;12.840;2023-03-31T05:26:14;7.60;99.90
25046;DHT22;13044;49.304;12.840;2023-03-31T05:28:41;7.60;99.90
25046;DHT22;13044;49.304;12.840;2023-03-31T05:31:09;7.60;99.90
25046;DHT22;13044;49.304;12.840;2023-03-31T05:33:38;7.60;99.90
25046;DHT22;13044;49.304;12.840;2023-03-31T05:36:09;7.70;99.90
25046;DHT22;13044;49.304;12.840;2023-03-31T05:38:38;7.70;99.90
25046;DHT22;13044;49.304;12.840;2023-03-31T05:41:06;7.70;99.90
25046;DHT22;13044;49.304;12.840;2023-03-31T05:43:35;7.80;99.90
25046;DHT22;13044;49.304;12.840;2023-03-31T05:46:03;7.90;99.90
25046;DHT22;13044;49.304;12.840;2023-03-31T05:48:31;7.90;99.90
25046;DHT22;13044;49.304;12.840;2023-03-31T05:50:58;8.00;99.90
25046;DHT22;13044;49.304;12.840;2023-03-31T05:53:26;8.00;99.90
25046;DHT22;13044;49.304;12.840;2023-03-31T05:55:58;8.10;99.90
25046;DHT22;13044;49.304;12.840;2023-03-31T05:58:26;8.20;99.90
25046;DHT22;13044;49.304;12.840;2023-03-31T06:01:02;8.30;99.90
25046;DHT22;13044;49.304;12.840;2023-03-31T06:03:38;8.40;99.90
25046;DHT22;13044;49.304;12.840;2023-03-31T06:06:08;8.40;99.90
25046;DHT22;13044;49.304;12.840;2023-03-31T06:08:36;8.50;99.90
25046;DHT22;13044;49.304;12.840;2023-03-31T06:11:08;8.60;99.90
25046;DHT22;13044;49.304;12.840;2023-03-31T06:13:37;8.70;99.90
25046;DHT22;13044;49.304;12.840;2023-03-31T06:16:05;8.70;99.90
25046;DHT22;13044;49.304;12.840;2023-03-31T06:18:34;8.80;99.90
25046;DHT22;13044;49.304;12.840;2023-03-31T06:21:02;8.80;99.90
25046;DHT22;13044;49.304;12.840;2023-03-31T06:23:29;8.90;99.90
25046;DHT22;13044;49.304;12.840;2023-03-31T06:26:04;9.00;99.90
25046;DHT22;13044;49.304;12.840;2023-03-31T06:28:34;9.00;99.90
25046;DHT22;13044;49.304;12.840;2023-03-31T06:31:04;9.00;99.90
25046;DHT22;13044;49.304;12.840;2023-03-31T06:33:39;9.10;99.90
25046;DHT22;13044;49.304;12.840;2023-03-31T06:36:08;9.20;99.90
25046;DHT22;13044;49.304;12.840;2023-03-31T06:38:36;9.30;99.90
25046;DHT22;13044;49.304;12.840;2023-03-31T06:41:08;9.30;99.90
25046;DHT22;13044;49.304;12.840;2023-03-31T06:43:38;9.30;99.90
25046;DHT22;13044;49.304;12.840;2023-03-31T06:46:05;9.30;99.90
25046;DHT22;13044;49.304;12.840;2023-03-31T06:48:33;9.30;99.90
25046;DHT22;13044;49.304;12.840;2023-03-31T06:51:01;9.30;99.90
25046;DHT22;13044;49.304;12.840;2023-03-31T06:53:30;9.30;99.90
25046;DHT22;13044;49.304;12.840;2023-03-31T06:55:57;9.30;99.90
25046;DHT22;13044;49.304;12.840;2023-03-31T06:58:24;9.20;99.90
25046;DHT22;13044;49.304;12.840;2023-03-31T07:00:54;9.20;99.90
25046;DHT22;13044;49.304;12.840;2023-03-31T07:03:21;9.20;99.90
25046;DHT22;13044;49.304;12.840;2023-03-31T07:05:51;9.20;99.90
25046;DHT22;13044;49.304;12.840;2023-03-31T07:08:19;9.30;99.90
25046;DHT22;13044;49.304;12.840;2023-03-31T07:10:48;9.40;99.90
25046;DHT22;13044;49.304;12.840;2023-03-31T07:13:16;9.50;99.90
25046;DHT22;13044;49.304;12.840;2023-03-31T07:15:45;9.60;99.90
25046;DHT22;13044;49.304;12.840;2023-03-31T07:18:14;9.60;99.90
25046;DHT22;13044;49.304;12.840;2023-03-31T07:20:42;9.50;99.90
25046;DHT22;13044;49.304;12.840;2023-03-31T07:23:09;9.50;99.90
25046;DHT22;13044;49.304;12.840;2023-03-31T07:25:36;9.60;99.90
25046;DHT22;13044;49.304;12.840;2023-03-31T07:28:04;9.70;99.90
25046;DHT22;13044;49.304;12.840;2023-03-31T07:30:32;9.60;99.90
25046;DHT22;13044;49.304;12.840;2023-03-31T07:33:01;9.60;99.90
25046;DHT22;13044;49.304;12.840;2023-03-31T07:35:28;9.70;99.90
25046;DHT22;13044;49.304;12.840;2023-03-31T07:37:57;9.80;99.90
25046;DHT22;13044;49.304;12.840;2023-03-31T07:40:26;9.80;99.90
25046;DHT22;13044;49.304;12.840;2023-03-31T07:42:54;9.80;99.90
25046;DHT22;13044;49.304;12.840;2023-03-31T07:45:23;9.90;99.90
25046;DHT22;13044;49.304;12.840;2023-03-31T07:47:51;10.00;99.90
25046;DHT22;13044;49.304;12.840;2023-03-31T07:50:19;10.10;99.90
25046;DHT22;13044;49.304;12.840;2023-03-31T07:52:47;9.90;99.90
25046;DHT22;13044;49.304;12.840;2023-03-31T07:55:14;9.80;99.90
25046;DHT22;13044;49.304;12.840;2023-03-31T07:57:42;9.70;99.90
25046;DHT22;13044;49.304;12.840;2023-03-31T08:00:13;9.60;99.90
25046;DHT22;13044;49.304;12.840;2023-03-31T08:02:42;9.60;99.90
25046;DHT22;13044;49.304;12.840;2023-03-31T08:05:11;9.60;99.90
25046;DHT22;13044;49.304;12.840;2023-03-31T08:07:41;9.70;99.90
25046;DHT22;13044;49.304;12.840;2023-03-31T08:10:13;9.60;99.90
25046;DHT22;13044;49.304;12.840;2023-03-31T08:12:42;9.60;99.90
25046;DHT22;13044;49.304;12.840;2023-03-31T08:15:09;9.60;99.90
25046;DHT22;13044;49.304;12.840;2023-03-31T08:17:37;9.60;99.90
25046;DHT22;13044;49.304;12.840;2023-03-31T08:20:05;9.60;99.90
25046;DHT22;13044;49.304;12.840;2023-03-31T08:22:34;9.50;99.90
25046;DHT22;13044;49.304;12.840;2023-03-31T08:25:01;9.50;99.90
25046;DHT22;13044;49.304;12.840;2023-03-31T08:27:33;9.40;99.90
25046;DHT22;13044;49.304;12.840;2023-03-31T08:30:02;9.40;99.90
25046;DHT22;13044;49.304;12.840;2023-03-31T08:32:31;9.30;99.90
25046;DHT22;13044;49.304;12.840;2023-03-31T08:34:59;9.30;99.90
25046;DHT22;13044;49.304;12.840;2023-03-31T08:37:26;9.30;99.90
25046;DHT22;13044;49.304;12.840;2023-03-31T08:39:56;9.20;99.90
25046;DHT22;13044;49.304;12.840;2023-03-31T08:42:43;9.30;99.90
25046;DHT22;13044;49.304;12.840;2023-03-31T08:45:33;9.30;99.90
25046;DHT22;13044;49.304;12.840;2023-03-31T08:48:06;9.30;99.90
25046;DHT22;13044;49.304;12.840;2023-03-31T08:50:48;9.30;99.90
25046;DHT22;13044;49.304;12.840;2023-03-31T08:53:28;9.30;99.90
25046;DHT22;13044;49.304;12.840;2023-03-31T08:55:57;9.30;99.90
25046;DHT22;13044;49.304;12.840;2023-03-31T09:16:26;9.30;99.90
25046;DHT22;13044;49.304;12.840;2023-03-31T09:19:19;9.30;99.90
25046;DHT22;13044;49.304;12.840;2023-03-31T09:21:55;9.40;99.90
25046;DHT22;13044;49.304;12.840;2023-03-31T09:24:35;9.40;99.90
25046;DHT22;13044;49.304;12.840;2023-03-31T09:27:11;9.60;99.90
25046;DHT22;13044;49.304;12.840;2023-03-31T09:32:24;9.60;99.90
25046;DHT22;13044;49.304;12.840;2023-03-31T09:34:59;9.50;99.90
25046;DHT22;13044;49.304;12.840;2023-03-31T09:37:31;9.50;99.90
25046;DHT22;13044;49.304;12.840;2023-03-31T09:39:59;9.50;99.90
25046;DHT22;13044;49.304;12.840;2023-03-31T09:42:37;9.40;99.90
25046;DHT22;13044;49.304;12.840;2023-03-31T09:45:04;9.50;99.90
25046;DHT22;13044;49.304;12.840;2023-03-31T09:47:36;9.40;99.90
25046;DHT22;13044;49.304;12.840;2023-03-31T09:50:09;9.40;99.90
25046;DHT22;13044;49.304;12.840;2023-03-31T09:52:42;9.40;99.90
25046;DHT22;13044;49.304;12.840;2023-03-31T09:55:17;9.40;99.90
25046;DHT22;13044;49.304;12.840;2023-03-31T09:58:06;9.40;99.90
25046;DHT22;13044;49.304;12.840;2023-03-31T10:00:34;9.40;99.90
25046;DHT22;13044;49.304;12.840;2023-03-31T10:03:03;9.50;99.90
25046;DHT22;13044;49.304;12.840;2023-03-31T10:05:36;9.60;99.90
25046;DHT22;13044;49.304;12.840;2023-03-31T10:08:40;9.60;99.90
25046;DHT22;13044;49.304;12.840;2023-03-31T10:11:09;9.80;99.90
25046;DHT22;13044;49.304;12.840;2023-03-31T10:16:42;10.10;99.90
25046;DHT22;13044;49.304;12.840;2023-03-31T10:19:24;10.20;99.90
25046;DHT22;13044;49.304;12.840;2023-03-31T10:22:04;10.30;99.90
25046;DHT22;13044;49.304;12.840;2023-03-31T10:24:40;10.40;99.90
25046;DHT22;13044;49.304;12.840;2023-03-31T10:27:25;10.30;99.90
25046;DHT22;13044;49.304;12.840;2023-03-31T10:29:58;10.40;99.90
25046;DHT22;13044;49.304;12.840;2023-03-31T10:32:31;10.40;99.90
25046;DHT22;13044;49.304;12.840;2023-03-31T10:35:04;10.30;99.90
25046;DHT22;13044;49.304;12.840;2023-03-31T10:37:34;10.20;99.90
25046;DHT22;13044;49.304;12.840;2023-03-31T10:40:18;10.20;99.90
25046;DHT22;13044;49.304;12.840;2023-03-31T10:42:57;10.20;99.90
25046;DHT22;13044;49.304;12.840;2023-03-31T10:45:48;10.10;99.90
25046;DHT22;13044;49.304;12.840;2023-03-31T10:48:51;10.10;99.90
25046;DHT22;13044;49.304;12.840;2023-03-31T10:51:25;10.00;99.90
25046;DHT22;13044;49.304;12.840;2023-03-31T10:53:54;10.00;99.90
25046;DHT22;13044;49.304;12.840;2023-03-31T11:05:30;10.30;99.90
25046;DHT22;13044;49.304;12.840;2023-03-31T11:38:15;11.20;99.90
25046;DHT22;13044;49.304;12.840;2023-03-31T11:43:41;11.00;99.90
25046;DHT22;13044;49.304;12.840;2023-03-31T11:49:05;11.20;99.90
25046;DHT22;13044;49.304;12.840;2023-03-31T11:51:56;11.20;99.90
25046;DHT22;13044;49.304;12.840;2023-03-31T11:54:49;11.20;99.90
25046;DHT22;13044;49.304;12.840;2023-03-31T11:57:24;11.20;99.90
25046;DHT22;13044;49.304;12.840;2023-03-31T11:59:57;11.20;99.90
25046;DHT22;13044;49.304;12.840;2023-03-31T12:02:48;11.20;99.90
25046;DHT22;13044;49.304;12.840;2023-03-31T12:05:21;11.30;99.90
25046;DHT22;13044;49.304;12.840;2023-03-31T12:11:00;12.40;99.90
25046;DHT22;13044;49.304;12.840;2023-03-31T12:16:23;13.30;99.90
25046;DHT22;13044;49.304;12.840;2023-03-31T12:19:31;13.40;99.90
25046;DHT22;13044;49.304;12.840;2023-03-31T12:22:26;13.30;99.90
25046;DHT22;13044;49.304;12.840;2023-03-31T12:24:53;13.40;99.90
25046;DHT22;13044;49.304;12.840;2023-03-31T12:27:25;13.40;99.90
25046;DHT22;13044;49.304;12.840;2023-03-31T12:29:59;13.40;99.90
25046;DHT22;13044;49.304;12.840;2023-03-31T12:32:35;13.10;99.90
25046;DHT22;13044;49.304;12.840;2023-03-31T12:35:15;13.10;99.90
25046;DHT22;13044;49.304;12.840;2023-03-31T12:41:00;13.10;99.90
25046;DHT22;13044;49.304;12.840;2023-03-31T12:44:06;13.00;99.90
25046;DHT22;13044;49.304;12.840;2023-03-31T12:52:11;13.60;99.90
25046;DHT22;13044;49.304;12.840;2023-03-31T13:03:41;13.70;99.90
25046;DHT22;13044;49.304;12.840;2023-03-31T13:08:54;13.60;99.90
25046;DHT22;13044;49.304;12.840;2023-03-31T13:11:35;13.50;99.90
25046;DHT22;13044;49.304;12.840;2023-03-31T13:16:33;13.30;99.90
25046;DHT22;13044;49.304;12.840;2023-03-31T13:19:00;13.00;99.90
25046;DHT22;13044;49.304;12.840;2023-03-31T13:21:27;12.90;99.90
25046;DHT22;13044;49.304;12.840;2023-03-31T13:23:59;12.80;99.90
25046;DHT22;13044;49.304;12.840;2023-03-31T13:29:21;12.60;99.90
25046;DHT22;13044;49.304;12.840;2023-03-31T13:34:41;12.60;99.90
25046;DHT22;13044;49.304;12.840;2023-03-31T13:40:27;12.90;99.90
25046;DHT22;13044;49.304;12.840;2023-03-31T13:52:43;13.10;99.90
25046;DHT22;13044;49.304;12.840;2023-03-31T13:58:43;13.20;99.90
25046;DHT22;13044;49.304;12.840;2023-03-31T14:07:16;13.40;99.90
25046;DHT22;13044;49.304;12.840;2023-03-31T14:09:46;13.40;99.90
25046;DHT22;13044;49.304;12.840;2023-03-31T14:12:30;13.30;99.90
25046;DHT22;13044;49.304;12.840;2023-03-31T14:14:59;13.30;99.90
25046;DHT22;13044;49.304;12.840;2023-03-31T14:17:32;12.80;99.90
25046;DHT22;13044;49.304;12.840;2023-03-31T14:26:02;12.40;99.90
25046;DHT22;13044;49.304;12.840;2023-03-31T14:32:19;12.30;99.90
25046;DHT22;13044;49.304;12.840;2023-03-31T14:34:38;11.70;99.90
25046;DHT22;13044;49.304;12.840;2023-03-31T14:37:14;10.60;99.90
25046;DHT22;13044;49.304;12.840;2023-03-31T14:39:51;9.70;99.90
25046;DHT22;13044;49.304;12.840;2023-03-31T14:42:40;9.20;99.90
25046;DHT22;13044;49.304;12.840;2023-03-31T14:45:20;9.40;99.90
25046;DHT22;13044;49.304;12.840;2023-03-31T14:47:54;9.40;99.90
25046;DHT22;13044;49.304;12.840;2023-03-31T14:50:32;9.50;99.90
25046;DHT22;13044;49.304;12.840;2023-03-31T14:53:00;9.60;99.90
25046;DHT22;13044;49.304;12.840;2023-03-31T14:55:30;9.60;99.90
25046;DHT22;13044;49.304;12.840;2023-03-31T14:58:29;9.70;99.90
25046;DHT22;13044;49.304;12.840;2023-03-31T15:01:02;9.80;99.90
25046;DHT22;13044;49.304;12.840;2023-03-31T15:03:34;10.00;99.90
25046;DHT22;13044;49.304;12.840;2023-03-31T15:06:04;10.10;99.90
25046;DHT22;13044;49.304;12.840;2023-03-31T15:08:32;10.10;99.90
25046;DHT22;13044;49.304;12.840;2023-03-31T15:11:03;10.10;99.90
25046;DHT22;13044;49.304;12.840;2023-03-31T15:13:42;9.90;99.90
25046;DHT22;13044;49.304;12.840;2023-03-31T15:16:41;10.00;99.90
25046;DHT22;13044;49.304;12.840;2023-03-31T15:22:10;10.00;99.90
25046;DHT22;13044;49.304;12.840;2023-03-31T15:24:39;10.00;99.90
25046;DHT22;13044;49.304;12.840;2023-03-31T15:27:13;9.90;99.90
25046;DHT22;13044;49.304;12.840;2023-03-31T15:30:05;10.00;99.90
25046;DHT22;13044;49.304;12.840;2023-03-31T15:32:35;10.00;99.90
25046;DHT22;13044;49.304;12.840;2023-03-31T15:35:05;10.00;99.90
25046;DHT22;13044;49.304;12.840;2023-03-31T15:37:49;10.00;99.90
25046;DHT22;13044;49.304;12.840;2023-03-31T15:40:26;10.10;99.90
25046;DHT22;13044;49.304;12.840;2023-03-31T15:42:57;10.30;99.90
25046;DHT22;13044;49.304;12.840;2023-03-31T15:53:43;10.40;99.90
25046;DHT22;13044;49.304;12.840;2023-03-31T15:59:26;10.40;99.90
25046;DHT22;13044;49.304;12.840;2023-03-31T16:02:15;10.30;99.90
25046;DHT22;13044;49.304;12.840;2023-03-31T16:04:48;10.20;99.90
25046;DHT22;13044;49.304;12.840;2023-03-31T16:07:25;10.20;99.90
25046;DHT22;13044;49.304;12.840;2023-03-31T16:10:05;10.10;99.90
25046;DHT22;13044;49.304;12.840;2023-03-31T16:12:47;10.00;99.90
25046;DHT22;13044;49.304;12.840;2023-03-31T16:15:35;10.00;99.90
25046;DHT22;13044;49.304;12.840;2023-03-31T16:18:10;9.90;99.90
25046;DHT22;13044;49.304;12.840;2023-03-31T16:20:51;10.00;99.90
25046;DHT22;13044;49.304;12.840;2023-03-31T16:23:25;9.90;99.90
25046;DHT22;13044;49.304;12.840;2023-03-31T16:25:54;9.90;99.90
25046;DHT22;13044;49.304;12.840;2023-03-31T16:28:28;9.80;99.90
25046;DHT22;13044;49.304;12.840;2023-03-31T16:30:57;9.80;99.90
25046;DHT22;13044;49.304;12.840;2023-03-31T16:33:29;9.80;99.90
25046;DHT22;13044;49.304;12.840;2023-03-31T16:35:57;9.80;99.90
25046;DHT22;13044;49.304;12.840;2023-03-31T16:38:26;9.90;99.90
25046;DHT22;13044;49.304;12.840;2023-03-31T16:40:56;9.90;99.90
25046;DHT22;13044;49.304;12.840;2023-03-31T16:43:24;9.90;99.90
25046;DHT22;13044;49.304;12.840;2023-03-31T16:45:55;9.90;99.90
25046;DHT22;13044;49.304;12.840;2023-03-31T16:48:26;9.90;99.90
25046;DHT22;13044;49.304;12.840;2023-03-31T16:50:55;10.00;99.90
25046;DHT22;13044;49.304;12.840;2023-03-31T16:53:26;9.90;99.90
25046;DHT22;13044;49.304;12.840;2023-03-31T16:55:54;9.80;99.90
25046;DHT22;13044;49.304;12.840;2023-03-31T16:58:23;9.80;99.90
25046;DHT22;13044;49.304;12.840;2023-03-31T17:00:50;9.80;99.90
25046;DHT22;13044;49.304;12.840;2023-03-31T17:03:17;9.80;99.90
25046;DHT22;13044;49.304;12.840;2023-03-31T17:05:47;9.80;99.90
25046;DHT22;13044;49.304;12.840;2023-03-31T17:08:18;9.90;99.90
25046;DHT22;13044;49.304;12.840;2023-03-31T17:10:52;9.90;99.90
25046;DHT22;13044;49.304;12.840;2023-03-31T17:13:21;9.90;99.90
25046;DHT22;13044;49.304;12.840;2023-03-31T17:15:48;9.90;99.90
25046;DHT22;13044;49.304;12.840;2023-03-31T17:18:21;9.80;99.90
25046;DHT22;13044;49.304;12.840;2023-03-31T17:20:48;9.80;99.90
25046;DHT22;13044;49.304;12.840;2023-03-31T17:23:15;9.90;99.90
25046;DHT22;13044;49.304;12.840;2023-03-31T17:25:49;9.90;99.90
25046;DHT22;13044;49.304;12.840;2023-03-31T17:28:18;9.90;99.90
25046;DHT22;13044;49.304;12.840;2023-03-31T17:30:45;9.90;99.90
25046;DHT22;13044;49.304;12.840;2023-03-31T17:33:14;9.80;99.90
25046;DHT22;13044;49.304;12.840;2023-03-31T17:35:42;9.80;99.90
25046;DHT22;13044;49.304;12.840;2023-03-31T17:38:09;9.70;99.90
25046;DHT22;13044;49.304;12.840;2023-03-31T17:40:40;9.70;99.90
25046;DHT22;13044;49.304;12.840;2023-03-31T17:43:06;9.70;99.90
25046;DHT22;13044;49.304;12.840;2023-03-31T17:45:33;9.70;99.90
25046;DHT22;13044;49.304;12.840;2023-03-31T17:48:00;9.70;99.90
25046;DHT22;13044;49.304;12.840;2023-03-31T17:50:27;9.60;99.90
25046;DHT22;13044;49.304;12.840;2023-03-31T17:52:54;9.30;99.90
25046;DHT22;13044;49.304;12.840;2023-03-31T17:55:21;9.20;99.90
25046;DHT22;13044;49.304;12.840;2023-03-31T17:57:48;9.10;99.90
25046;DHT22;13044;49.304;12.840;2023-03-31T18:00:16;9.10;99.90
25046;DHT22;13044;49.304;12.840;2023-03-31T18:02:43;9.00;99.90
25046;DHT22;13044;49.304;12.840;2023-03-31T18:05:10;9.00;99.90
25046;DHT22;13044;49.304;12.840;2023-03-31T18:07:37;9.00;99.90
25046;DHT22;13044;49.304;12.840;2023-03-31T18:10:04;9.00;99.90
25046;DHT22;13044;49.304;12.840;2023-03-31T18:12:32;9.00;99.90
25046;DHT22;13044;49.304;12.840;2023-03-31T18:15:03;9.00;99.90
25046;DHT22;13044;49.304;12.840;2023-03-31T18:17:32;9.00;99.90
25046;DHT22;13044;49.304;12.840;2023-03-31T18:19:59;9.00;99.90
25046;DHT22;13044;49.304;12.840;2023-03-31T18:22:26;9.00;99.90
25046;DHT22;13044;49.304;12.840;2023-03-31T18:24:54;9.00;99.90
25046;DHT22;13044;49.304;12.840;2023-03-31T18:27:21;9.00;99.90
25046;DHT22;13044;49.304;12.840;2023-03-31T18:29:50;8.90;99.90
25046;DHT22;13044;49.304;12.840;2023-03-31T18:32:17;8.90;99.90
25046;DHT22;13044;49.304;12.840;2023-03-31T18:34:44;9.00;99.90
25046;DHT22;13044;49.304;12.840;2023-03-31T18:37:12;8.90;99.90
25046;DHT22;13044;49.304;12.840;2023-03-31T18:39:39;9.00;99.90
25046;DHT22;13044;49.304;12.840;2023-03-31T18:42:06;9.00;99.90
25046;DHT22;13044;49.304;12.840;2023-03-31T18:44:33;9.00;99.90
25046;DHT22;13044;49.304;12.840;2023-03-31T18:47:01;9.00;99.90
25046;DHT22;13044;49.304;12.840;2023-03-31T18:49:28;9.10;99.90
25046;DHT22;13044;49.304;12.840;2023-03-31T18:51:55;9.20;99.90
25046;DHT22;13044;49.304;12.840;2023-03-31T18:54:24;9.30;99.90
25046;DHT22;13044;49.304;12.840;2023-03-31T18:56:50;9.30;99.90
25046;DHT22;13044;49.304;12.840;2023-03-31T18:59:17;9.30;99.90
25046;DHT22;13044;49.304;12.840;2023-03-31T19:01:44;9.40;99.90
25046;DHT22;13044;49.304;12.840;2023-03-31T19:04:12;9.40;99.90
25046;DHT22;13044;49.304;12.840;2023-03-31T19:06:39;9.40;99.90
25046;DHT22;13044;49.304;12.840;2023-03-31T19:09:06;9.50;99.90